createdAt,value
2022-08-26T00:05:37.502Z,9.25
2022-08-26T00:15:40.201Z,9.35
2022-08-26T00:25:43.831Z,9.95
2022-08-26T00:35:46.469Z,10.27
2022-08-26T00:45:55.535Z,10.00
2022-08-26T01:06:03.431Z,11.93
2022-08-26T01:16:10.694Z,12.18
2022-08-26T01:26:21.719Z,14.00
2022-08-26T01:36:23.825Z,14.85
2022-08-26T01:46:29.645Z,15.18
2022-08-26T01:56:33.420Z,13.25
2022-08-26T02:06:40.296Z,12.95
2022-08-26T02:16:45.384Z,13.77
2022-08-26T02:26:49.044Z,16.58
2022-08-26T02:36:50.994Z,14.43
2022-08-26T02:46:54.760Z,15.48
2022-08-26T02:56:56.785Z,16.83
2022-08-26T03:07:00.722Z,15.73
2022-08-26T03:17:03.678Z,16.33
2022-08-26T03:27:07.541Z,17.00
2022-08-26T03:37:09.641Z,15.82
2022-08-26T03:47:13.067Z,15.93
2022-08-26T03:57:15.021Z,15.23
2022-08-26T04:07:20.106Z,12.85
2022-08-26T04:17:24.971Z,10.52
2022-08-26T04:27:28.504Z,11.10
2022-08-26T04:37:31.316Z,11.73
2022-08-26T04:47:36.136Z,10.82
2022-08-26T04:57:38.562Z,11.02
2022-08-26T05:07:42.596Z,9.38
2022-08-26T05:17:44.516Z,11.85
2022-08-26T05:27:48.353Z,14.25
2022-08-26T05:37:50.574Z,13.65
2022-08-26T05:47:54.002Z,14.38
2022-08-26T05:57:55.927Z,15.05
2022-08-26T06:07:59.339Z,14.45
2022-08-26T06:18:01.377Z,13.48
2022-08-26T06:28:05.610Z,12.68
2022-08-26T06:38:08.778Z,12.20
2022-08-26T06:48:12.722Z,12.10
2022-08-26T06:58:16.140Z,12.25
2022-08-26T07:08:19.514Z,12.32
2022-08-26T07:18:21.793Z,15.63
2022-08-26T07:28:26.406Z,14.00
2022-08-26T07:38:28.448Z,14.85
2022-08-26T07:48:35.242Z,12.20
2022-08-26T07:58:37.808Z,9.18
2022-08-26T08:08:41.137Z,7.78
2022-08-26T08:18:43.084Z,7.75
2022-08-26T08:28:47.959Z,6.95
2022-08-26T08:38:50.339Z,6.60
2022-08-26T08:48:57.183Z,5.53
2022-08-26T08:59:11.806Z,3.87
2022-08-26T09:09:23.710Z,4.60
2022-08-26T09:19:33.405Z,4.18
2022-08-26T09:40:56.295Z,3.40
2022-08-26T09:51:03.797Z,2.65
2022-08-26T10:01:14.335Z,3.00
2022-08-26T10:11:22.309Z,2.90
2022-08-26T10:21:31.148Z,3.40
2022-08-26T10:31:40.150Z,3.13
2022-08-26T10:41:49.022Z,3.53
2022-08-26T10:51:59.379Z,2.70
2022-08-26T11:02:07.227Z,2.90
2022-08-26T11:12:10.343Z,3.22
2022-08-26T11:22:26.311Z,3.53
2022-08-26T11:32:49.688Z,2.87
2022-08-26T11:42:56.886Z,2.88
2022-08-26T11:53:03.091Z,4.07
2022-08-26T12:03:08.631Z,2.17
2022-08-26T12:13:20.464Z,3.10
2022-08-26T12:23:36.661Z,2.60
2022-08-26T12:33:38.889Z,2.78
2022-08-26T12:43:44.724Z,3.13
2022-08-26T12:53:46.745Z,2.20
2022-08-26T13:03:50.450Z,2.28
2022-08-26T13:13:55.802Z,4.63
2022-08-26T13:24:02.743Z,2.80
2022-08-26T13:34:05.170Z,3.67
2022-08-26T13:44:08.927Z,3.42
2022-08-26T13:54:10.959Z,2.33
2022-08-26T14:04:14.352Z,2.25
2022-08-26T14:14:16.395Z,2.78
2022-08-26T14:24:19.865Z,2.58
2022-08-26T14:35:07.897Z,4.70
2022-08-26T14:45:15.756Z,2.53
2022-08-26T14:55:19.983Z,2.10
2022-08-26T15:05:23.337Z,2.70
2022-08-26T15:15:25.390Z,2.75
2022-08-26T15:25:28.820Z,1.95
2022-08-26T15:35:32.980Z,2.60
2022-08-26T15:45:39.034Z,2.70
2022-08-26T15:55:41.101Z,1.95
2022-08-26T16:05:44.960Z,1.70
2022-08-26T16:15:47.684Z,2.15
2022-08-26T16:25:52.874Z,2.03
2022-08-26T16:35:54.860Z,2.20
2022-08-26T16:45:58.357Z,1.92
2022-08-26T16:56:00.483Z,1.95
2022-08-26T17:06:04.252Z,2.72
2022-08-26T17:27:46.191Z,2.60
2022-08-26T17:37:50.863Z,2.63
2022-08-26T17:47:56.042Z,2.58
2022-08-26T17:57:58.034Z,2.42
2022-08-26T18:19:57.823Z,2.25
2022-08-26T18:30:01.324Z,2.58
2022-08-26T18:40:04.554Z,2.10
2022-08-26T18:50:09.293Z,2.65
2022-08-26T19:00:36.423Z,3.08
2022-08-26T19:10:40.503Z,2.97
2022-08-26T19:20:46.726Z,3.45
2022-08-26T19:30:53.104Z,2.83
2022-08-26T19:52:18.246Z,2.50
2022-08-26T20:02:20.350Z,2.92
2022-08-26T20:12:54.736Z,3.30
2022-08-26T20:22:57.002Z,3.20
2022-08-26T20:33:00.404Z,3.28
2022-08-26T20:43:02.405Z,2.92
2022-08-26T20:53:05.887Z,2.90
2022-08-26T21:03:07.924Z,3.25
2022-08-26T21:13:11.934Z,3.42
2022-08-26T21:23:13.910Z,3.83
2022-08-26T21:33:28.959Z,6.95
2022-08-26T21:43:46.632Z,3.22
2022-08-26T21:53:50.746Z,3.40
2022-08-26T22:03:53.312Z,4.07
2022-08-26T22:13:56.700Z,3.53
2022-08-26T22:23:58.866Z,3.30
2022-08-26T22:34:02.286Z,3.42
2022-08-26T22:44:04.495Z,3.40
2022-08-26T22:54:07.896Z,5.22
2022-08-26T23:04:10.109Z,3.08
2022-08-26T23:14:13.608Z,3.55
2022-08-26T23:24:16.075Z,3.30
2022-08-26T23:34:19.486Z,3.55
2022-08-26T23:44:21.608Z,4.65
2022-08-26T23:54:25.087Z,5.15
